Boldon Colliery, United Kingdom
Current Conditions -  °F | °C
As of 2:50 AM on Friday 19 Dec 2014 (Local Time) from EGNT Reporting Station
Clear Clear  
Wind Chill: 34°   Ceiling: Unl
Heat Index: 43°   Visibility: 6mi
Dew Point: 36°   Wind: 23mph
Humidity: 76%   Direction: 260°W
Pressure: 29.5"   Gusts: NA
Location:  54.95°N, 1.46°W
Report Text: EGNT 190250Z 26020KT CAVOK 06/02 Q0999
Loading
Personal Weather Stations






























Interactive Weather Map New forecast layout! Learn more

10-Day Weather Forecast

Advertisements
Track Severe Weather on mobile